createdAt,value
2018-07-11T00:00:36.542Z,36.53
2018-07-11T00:03:05.841Z,35.63
2018-07-11T00:05:35.071Z,37.78
2018-07-11T00:08:04.129Z,36.98
2018-07-11T00:10:33.942Z,34.33
2018-07-11T00:13:03.102Z,32.90
2018-07-11T00:15:32.403Z,32.45
2018-07-11T00:18:01.600Z,31.12
2018-07-11T00:20:30.924Z,32.03
2018-07-11T00:23:00.169Z,31.60
2018-07-11T00:25:29.353Z,28.42
2018-07-11T00:27:58.110Z,29.02
2018-07-11T00:30:27.506Z,29.48
2018-07-11T00:32:56.605Z,25.10
2018-07-11T00:35:25.830Z,23.10
2018-07-11T00:37:54.556Z,20.55
2018-07-11T00:40:23.741Z,17.25
2018-07-11T00:42:53.049Z,17.98
2018-07-11T00:45:23.048Z,17.07
2018-07-11T00:47:53.007Z,15.78
2018-07-11T00:50:22.225Z,13.78
2018-07-11T00:52:51.395Z,13.15
2018-07-11T00:55:20.394Z,12.60
2018-07-11T00:57:49.503Z,12.93
2018-07-11T01:00:18.457Z,11.50
2018-07-11T01:02:48.094Z,11.20
2018-07-11T01:05:17.064Z,11.75
2018-07-11T01:07:46.661Z,11.83
2018-07-11T01:10:15.840Z,11.48
2018-07-11T01:12:45.539Z,14.70
2018-07-11T01:15:15.157Z,18.52
2018-07-11T01:17:49.666Z,18.10
2018-07-11T01:20:19.042Z,18.45
2018-07-11T01:22:48.127Z,15.45
2018-07-11T01:25:17.248Z,15.03
2018-07-11T01:27:46.506Z,13.78
2018-07-11T01:30:15.633Z,14.20
2018-07-11T01:32:44.740Z,12.80
2018-07-11T01:35:14.759Z,11.73
2018-07-11T01:37:43.848Z,11.53
2018-07-11T01:40:13.158Z,11.57
2018-07-11T01:42:42.241Z,13.03
2018-07-11T01:45:12.074Z,12.05
2018-07-11T01:47:41.239Z,12.93
2018-07-11T01:50:10.533Z,12.53
2018-07-11T01:52:50.820Z,14.40
2018-07-11T01:55:20.092Z,14.18
2018-07-11T01:57:50.055Z,12.40
2018-07-11T02:00:20.039Z,14.63
2018-07-11T02:02:49.751Z,14.65
2018-07-11T02:05:19.018Z,15.03
2018-07-11T02:07:48.020Z,16.10
2018-07-11T02:10:17.032Z,16.97
2018-07-11T02:12:46.048Z,16.67
2018-07-11T02:15:14.983Z,16.95
2018-07-11T02:17:44.003Z,17.67
2018-07-11T02:20:15.024Z,16.73
2018-07-11T02:22:44.269Z,18.82
2018-07-11T02:25:15.588Z,21.35
2018-07-11T02:27:44.899Z,20.55
2018-07-11T02:30:14.081Z,19.32
2018-07-11T02:32:44.093Z,18.35
2018-07-11T02:35:13.296Z,19.02
2018-07-11T02:37:42.379Z,19.17
2018-07-11T02:40:11.571Z,19.25
2018-07-11T02:42:41.999Z,17.90
2018-07-11T02:45:10.992Z,17.07
2018-07-11T02:47:42.375Z,20.88
2018-07-11T02:50:12.352Z,20.97
2018-07-11T02:52:41.827Z,19.70
2018-07-11T02:55:11.026Z,19.60
2018-07-11T02:57:40.229Z,22.95
2018-07-11T03:00:09.490Z,21.73
2018-07-11T03:02:38.683Z,20.43
2018-07-11T03:05:07.701Z,22.82
2018-07-11T03:07:36.885Z,20.35
2018-07-11T03:10:06.285Z,21.12
2018-07-11T03:12:36.102Z,22.82
2018-07-11T03:15:05.259Z,23.12
2018-07-11T03:17:34.631Z,24.12
2018-07-11T03:20:04.377Z,21.70
2018-07-11T03:22:33.427Z,21.80
2018-07-11T03:25:02.392Z,23.40
2018-07-11T03:27:31.395Z,25.55
2018-07-11T03:30:00.349Z,25.23
2018-07-11T03:32:29.250Z,25.32
2018-07-11T03:34:58.333Z,26.37
2018-07-11T03:37:27.405Z,25.08
2018-07-11T03:39:56.070Z,27.95
2018-07-11T03:42:26.074Z,24.43
2018-07-11T03:44:55.688Z,26.50
2018-07-11T03:47:25.043Z,24.72
2018-07-11T03:49:54.136Z,24.37
2018-07-11T03:52:23.308Z,24.82
2018-07-11T03:54:53.136Z,26.80
2018-07-11T03:57:22.558Z,25.00
2018-07-11T03:59:52.460Z,27.15
2018-07-11T04:02:21.645Z,26.87
2018-07-11T04:04:51.069Z,26.62
2018-07-11T04:07:20.404Z,28.98
2018-07-11T04:09:49.516Z,25.62
2018-07-11T04:12:18.591Z,26.65
2018-07-11T04:14:47.701Z,25.72
2018-07-11T04:17:16.777Z,26.37
2018-07-11T04:19:45.992Z,30.05
2018-07-11T04:22:15.654Z,27.85
2018-07-11T04:24:44.746Z,28.92
2018-07-11T04:27:14.113Z,26.95
2018-07-11T04:29:43.412Z,27.15
2018-07-11T04:32:12.441Z,26.55
2018-07-11T04:34:41.548Z,25.70
2018-07-11T04:37:10.905Z,25.65
2018-07-11T04:39:39.955Z,28.52
2018-07-11T04:42:09.060Z,26.15
2018-07-11T04:44:38.093Z,26.15
2018-07-11T04:47:07.038Z,24.77
2018-07-11T04:49:35.674Z,25.72
2018-07-11T04:52:04.831Z,30.30
2018-07-11T04:54:35.159Z,27.32
2018-07-11T04:57:04.555Z,30.88
2018-07-11T04:59:33.785Z,28.52
2018-07-11T05:02:03.471Z,28.95
2018-07-11T05:04:32.883Z,30.17
2018-07-11T05:07:02.790Z,30.70
2018-07-11T05:09:31.901Z,32.25
2018-07-11T05:12:00.935Z,30.30
2018-07-11T05:14:30.072Z,31.62
2018-07-11T05:16:59.144Z,31.65
2018-07-11T05:19:28.128Z,32.60
2018-07-11T05:21:57.352Z,31.90
2018-07-11T05:24:26.664Z,32.30
2018-07-11T05:26:56.444Z,30.52
2018-07-11T05:29:25.473Z,28.12
2018-07-11T05:31:55.773Z,31.15
2018-07-11T05:34:25.430Z,29.25
2018-07-11T05:36:54.644Z,31.00
2018-07-11T05:39:24.223Z,36.53
2018-07-11T05:41:53.796Z,32.13
2018-07-11T05:44:22.980Z,33.67
2018-07-11T05:46:56.267Z,31.35
2018-07-11T05:49:25.196Z,32.35
2018-07-11T05:51:54.073Z,31.60
2018-07-11T05:54:22.985Z,37.48
2018-07-11T05:56:52.046Z,34.38
2018-07-11T05:59:21.005Z,34.05
2018-07-11T06:01:49.873Z,30.72
2018-07-11T06:04:18.914Z,31.50
2018-07-11T06:06:48.294Z,28.15
2018-07-11T06:09:17.392Z,29.32
2018-07-11T06:11:46.570Z,30.97
2018-07-11T06:14:15.665Z,29.63
2018-07-11T06:16:44.969Z,34.67
2018-07-11T06:19:14.164Z,29.23
2018-07-11T06:21:45.024Z,27.67
2018-07-11T06:24:15.468Z,24.70
2018-07-11T06:26:44.628Z,23.92
2018-07-11T06:29:13.809Z,19.25
2018-07-11T06:31:43.015Z,19.30
2018-07-11T06:34:12.229Z,17.35
2018-07-11T06:36:41.284Z,17.30
2018-07-11T06:39:10.449Z,14.95
2018-07-11T06:41:39.830Z,16.42
2018-07-11T06:44:10.717Z,17.40
2018-07-11T06:46:39.910Z,16.97
2018-07-11T06:49:09.246Z,16.40
2018-07-11T06:51:38.279Z,16.10
2018-07-11T06:54:07.263Z,14.38
2018-07-11T06:56:36.928Z,16.85
2018-07-11T06:59:06.099Z,18.37
2018-07-11T07:01:35.181Z,18.52
2018-07-11T07:04:04.113Z,15.95
2018-07-11T07:06:33.126Z,16.73
2018-07-11T07:09:02.069Z,18.98
2018-07-11T07:11:30.920Z,17.48
2018-07-11T07:13:59.795Z,19.05
2018-07-11T07:16:28.717Z,17.65
2018-07-11T07:18:57.620Z,17.87
2018-07-11T07:21:26.737Z,17.20
2018-07-11T07:23:55.975Z,16.90
2018-07-11T07:26:25.932Z,16.60
2018-07-11T07:28:55.442Z,16.45
2018-07-11T07:31:24.614Z,16.32
2018-07-11T07:33:53.675Z,15.00
2018-07-11T07:36:22.317Z,15.40
2018-07-11T07:38:51.307Z,15.30
2018-07-11T07:41:21.631Z,15.45
2018-07-11T07:43:51.499Z,14.75
2018-07-11T07:46:21.589Z,13.40
2018-07-11T07:48:51.268Z,13.45
2018-07-11T07:51:20.937Z,13.40
2018-07-11T07:53:50.168Z,13.03
2018-07-11T07:56:19.312Z,14.38
2018-07-11T07:58:48.561Z,12.90
2018-07-11T08:01:18.368Z,13.85
2018-07-11T08:03:47.528Z,12.95
2018-07-11T08:06:16.662Z,12.85
2018-07-11T08:08:45.621Z,12.15
2018-07-11T08:11:14.912Z,13.83
2018-07-11T08:13:44.157Z,13.08
2018-07-11T08:16:13.233Z,13.00
2018-07-11T08:18:43.710Z,13.45
2018-07-11T08:21:12.649Z,13.15
2018-07-11T08:23:52.448Z,13.58
2018-07-11T08:26:32.376Z,13.85
2018-07-11T08:30:43.165Z,13.22
2018-07-11T08:34:25.404Z,15.13
2018-07-11T08:37:09.240Z,13.38
2018-07-11T08:40:04.877Z,12.88
2018-07-11T08:42:58.133Z,13.25
2018-07-11T08:46:13.473Z,12.80
2018-07-11T08:48:53.668Z,12.95
2018-07-11T08:53:40.279Z,12.50
2018-07-11T08:56:24.775Z,12.13
2018-07-11T08:59:38.185Z,12.13
2018-07-11T09:04:17.406Z,13.43
2018-07-11T09:06:59.607Z,12.58
2018-07-11T09:09:56.093Z,12.78
2018-07-11T09:12:46.022Z,12.85
2018-07-11T09:19:33.877Z,11.75
2018-07-11T09:24:17.426Z,11.78
2018-07-11T09:26:46.414Z,10.25
2018-07-11T09:29:15.740Z,10.30
2018-07-11T09:31:44.911Z,12.40
2018-07-11T09:34:13.862Z,11.08
2018-07-11T09:36:42.784Z,10.75
2018-07-11T09:39:11.705Z,12.88
2018-07-11T09:41:40.675Z,13.15
2018-07-11T09:44:09.588Z,13.22
2018-07-11T09:46:38.613Z,11.93
2018-07-11T09:49:08.069Z,12.73
2018-07-11T09:51:38.274Z,12.30
2018-07-11T09:54:07.355Z,11.95
2018-07-11T09:56:36.581Z,13.25
2018-07-11T09:59:05.643Z,11.90
2018-07-11T10:01:34.804Z,12.13
2018-07-11T10:04:05.163Z,11.93
2018-07-11T10:06:34.324Z,11.78
2018-07-11T10:09:04.100Z,12.98
2018-07-11T10:11:33.009Z,13.83
2018-07-11T10:14:02.427Z,10.50
2018-07-11T10:16:31.359Z,11.80
2018-07-11T10:19:06.855Z,10.60
2018-07-11T10:21:36.031Z,10.70
2018-07-11T10:24:05.111Z,12.85
2018-07-11T10:26:34.126Z,13.25
2018-07-11T10:29:03.137Z,11.55
2018-07-11T10:31:32.084Z,11.90
2018-07-11T10:34:01.524Z,12.90
2018-07-11T10:36:30.460Z,12.30
2018-07-11T10:38:59.575Z,12.55
2018-07-11T10:41:28.650Z,13.05
2018-07-11T10:43:57.749Z,11.12
2018-07-11T10:46:26.808Z,12.15
2018-07-11T10:48:55.650Z,12.03
2018-07-11T10:51:24.673Z,13.20
2018-07-11T10:53:53.601Z,13.58
2018-07-11T10:56:22.488Z,12.10
2018-07-11T10:58:51.497Z,12.90
2018-07-11T11:01:20.548Z,13.50
2018-07-11T11:03:49.381Z,12.40
2018-07-11T11:06:18.400Z,13.85
2018-07-11T11:08:47.540Z,13.78
2018-07-11T11:11:16.788Z,14.33
2018-07-11T11:13:45.717Z,13.03
2018-07-11T11:16:14.664Z,13.35
2018-07-11T11:18:44.323Z,11.60
2018-07-11T11:21:13.396Z,13.78
2018-07-11T11:23:42.673Z,13.85
2018-07-11T11:26:11.972Z,12.65
2018-07-11T11:28:41.309Z,13.32
2018-07-11T11:31:10.453Z,11.80
2018-07-11T11:33:39.568Z,12.40
2018-07-11T11:36:08.735Z,12.78
2018-07-11T11:38:37.928Z,13.10
2018-07-11T11:41:07.168Z,12.88
2018-07-11T11:43:36.319Z,13.00
2018-07-11T11:46:05.525Z,12.70
2018-07-11T11:48:34.583Z,13.20
2018-07-11T11:51:03.816Z,14.73
2018-07-11T11:53:32.925Z,11.28
2018-07-11T11:56:01.991Z,12.80
2018-07-11T11:58:31.198Z,11.50
2018-07-11T12:01:00.260Z,12.25
2018-07-11T12:03:29.181Z,13.48
2018-07-11T12:05:58.112Z,12.40
2018-07-11T12:08:27.067Z,11.53
2018-07-11T12:10:55.948Z,12.58
2018-07-11T12:13:24.845Z,13.10
2018-07-11T12:15:53.700Z,11.80
2018-07-11T12:18:23.125Z,11.85
2018-07-11T12:20:52.308Z,11.22
2018-07-11T12:23:21.338Z,12.58
2018-07-11T12:26:05.312Z,12.45
2018-07-11T12:28:34.357Z,12.18
2018-07-11T12:31:04.264Z,11.75
2018-07-11T12:33:33.488Z,9.90
2018-07-11T12:36:02.786Z,11.50
2018-07-11T12:38:32.789Z,10.25
2018-07-11T12:41:02.515Z,10.60
2018-07-11T12:43:31.808Z,9.13
2018-07-11T12:46:00.886Z,9.15
2018-07-11T12:48:35.304Z,9.20
2018-07-11T12:51:04.571Z,9.53
2018-07-11T12:53:33.868Z,10.90
2018-07-11T12:56:02.875Z,9.70
2018-07-11T12:58:32.925Z,12.35
2018-07-11T13:01:02.377Z,10.38
2018-07-11T13:03:31.574Z,12.05
2018-07-11T13:06:00.740Z,9.78
2018-07-11T13:08:29.994Z,11.48
2018-07-11T13:10:59.700Z,9.50
2018-07-11T13:13:28.631Z,9.30
2018-07-11T13:15:57.972Z,10.38
2018-07-11T13:18:26.957Z,9.80
2018-07-11T13:20:56.558Z,11.50
2018-07-11T13:23:25.746Z,10.50
2018-07-11T13:25:54.674Z,9.80
2018-07-11T13:28:23.620Z,9.90
2018-07-11T13:30:52.605Z,11.78
2018-07-11T13:33:21.691Z,10.10
2018-07-11T13:35:50.804Z,10.38
2018-07-11T13:38:20.002Z,10.80
2018-07-11T13:40:48.913Z,11.08
2018-07-11T13:43:17.808Z,12.25
2018-07-11T13:45:46.905Z,13.35
2018-07-11T13:48:16.929Z,13.72
2018-07-11T13:50:45.885Z,15.55
2018-07-11T13:53:15.136Z,20.60
2018-07-11T13:55:44.593Z,15.20
2018-07-11T13:58:13.699Z,13.40
2018-07-11T14:00:42.889Z,12.75
2018-07-11T14:03:12.031Z,12.65
2018-07-11T14:05:41.809Z,11.95
2018-07-11T14:08:11.064Z,12.85
2018-07-11T14:10:40.233Z,14.05
2018-07-11T14:13:09.472Z,12.05
2018-07-11T14:15:38.580Z,9.63
2018-07-11T14:18:07.756Z,9.33
2018-07-11T14:20:36.937Z,9.30
2018-07-11T14:23:08.140Z,8.88
2018-07-11T14:25:39.658Z,8.38
2018-07-11T14:28:09.179Z,8.93
2018-07-11T14:30:39.832Z,10.95
2018-07-11T14:33:09.853Z,10.58
2018-07-11T14:35:38.806Z,9.63
2018-07-11T14:38:07.701Z,11.50
2018-07-11T14:40:36.657Z,11.65
2018-07-11T14:43:05.603Z,10.70
2018-07-11T14:45:34.768Z,13.28
2018-07-11T14:48:10.541Z,12.60
2018-07-11T14:50:39.792Z,11.08
2018-07-11T14:53:08.797Z,11.40
2018-07-11T14:55:37.962Z,13.83
2018-07-11T14:58:07.851Z,10.95
2018-07-11T15:00:37.109Z,9.73
2018-07-11T15:03:06.348Z,11.85
2018-07-11T15:05:35.563Z,10.25
2018-07-11T15:08:05.129Z,9.63
2018-07-11T15:10:34.487Z,14.83
2018-07-11T15:13:03.868Z,8.95
2018-07-11T15:15:33.244Z,10.00
2018-07-11T15:18:02.290Z,8.75
2018-07-11T15:20:32.121Z,9.63
2018-07-11T15:23:01.393Z,10.53
2018-07-11T15:25:30.725Z,9.90
2018-07-11T15:27:59.764Z,9.10
2018-07-11T15:30:28.948Z,10.58
2018-07-11T15:32:58.287Z,11.12
2018-07-11T15:35:27.448Z,10.30
2018-07-11T15:37:56.671Z,10.08
2018-07-11T15:40:26.028Z,10.15
2018-07-11T15:42:55.216Z,9.28
2018-07-11T15:45:24.316Z,9.93
2018-07-11T15:47:53.305Z,11.10
2018-07-11T15:50:23.133Z,10.28
2018-07-11T15:52:51.973Z,11.65
2018-07-11T15:55:21.927Z,12.00
2018-07-11T15:57:51.774Z,13.22
2018-07-11T16:00:24.579Z,13.53
2018-07-11T16:02:53.642Z,14.30
2018-07-11T16:05:24.346Z,12.75
2018-07-11T16:07:54.675Z,12.93
2018-07-11T16:10:30.912Z,12.23
2018-07-11T16:13:00.820Z,12.10
2018-07-11T16:15:30.476Z,14.47
2018-07-11T16:17:59.749Z,15.25
2018-07-11T16:20:29.039Z,13.00
2018-07-11T16:22:58.161Z,13.70
2018-07-11T16:25:27.613Z,13.45
2018-07-11T16:27:57.785Z,12.45
2018-07-11T16:30:27.078Z,12.18
2018-07-11T16:32:56.114Z,13.00
2018-07-11T16:35:25.362Z,13.65
2018-07-11T16:37:55.147Z,13.45
2018-07-11T16:40:24.589Z,12.20
2018-07-11T16:42:54.073Z,13.05
2018-07-11T16:45:23.167Z,12.70
2018-07-11T16:47:52.279Z,13.08
2018-07-11T16:50:21.571Z,20.17
2018-07-11T16:52:51.253Z,18.70
2018-07-11T16:55:20.674Z,20.62
2018-07-11T16:57:51.191Z,20.02
2018-07-11T17:00:24.969Z,15.93
2018-07-11T17:03:01.441Z,18.32
2018-07-11T17:06:33.052Z,13.05
2018-07-11T17:09:02.173Z,14.95
2018-07-11T17:11:31.248Z,13.85
2018-07-11T17:14:03.304Z,14.40
2018-07-11T17:17:06.544Z,12.78
2018-07-11T17:19:51.224Z,13.80
2018-07-11T17:22:25.926Z,13.25
2018-07-11T17:24:55.119Z,15.25
2018-07-11T17:27:24.899Z,16.50
2018-07-11T17:30:00.116Z,15.53
2018-07-11T17:32:30.055Z,14.87
2018-07-11T17:34:59.400Z,15.23
2018-07-11T17:37:43.429Z,17.30
2018-07-11T17:40:13.496Z,17.02
2018-07-11T17:42:44.410Z,17.62
2018-07-11T17:45:19.838Z,14.43
2018-07-11T17:48:00.087Z,15.45
2018-07-11T17:50:30.076Z,14.00
2018-07-11T17:53:09.229Z,12.60
2018-07-11T17:56:01.333Z,14.75
2018-07-11T17:58:53.594Z,12.58
2018-07-11T18:01:29.676Z,13.03
2018-07-11T18:04:09.772Z,12.88
2018-07-11T18:07:21.296Z,14.13
2018-07-11T18:10:01.756Z,13.50
2018-07-11T18:12:40.601Z,14.65
2018-07-11T18:15:19.175Z,13.22
2018-07-11T18:18:00.816Z,13.72
2018-07-11T18:20:40.629Z,13.40
2018-07-11T18:23:19.984Z,13.85
2018-07-11T18:28:01.028Z,12.65
2018-07-11T18:30:37.304Z,14.05
2018-07-11T18:33:27.806Z,14.85
2018-07-11T18:37:10.173Z,13.68
2018-07-11T18:41:16.862Z,14.65
2018-07-11T18:43:54.364Z,14.65
2018-07-11T18:46:34.569Z,15.30
2018-07-11T18:50:52.137Z,14.58
2018-07-11T18:53:36.622Z,16.50
2018-07-11T18:57:12.179Z,15.50
2018-07-11T18:59:52.803Z,14.85
2018-07-11T19:02:29.403Z,17.98
2018-07-11T19:05:11.845Z,16.85
2018-07-11T19:08:00.972Z,16.48
2018-07-11T19:10:45.228Z,17.02
2018-07-11T19:13:25.553Z,17.00
2018-07-11T19:15:58.670Z,17.70
2018-07-11T19:19:24.279Z,16.48
2018-07-11T19:21:59.323Z,14.18
2018-07-11T19:25:37.322Z,16.95
2018-07-11T19:28:21.260Z,16.45
2018-07-11T19:30:57.440Z,16.37
2018-07-11T19:34:37.353Z,17.73
2018-07-11T19:37:18.242Z,18.73
2018-07-11T19:39:58.089Z,16.48
2018-07-11T19:42:37.845Z,15.75
2018-07-11T19:45:15.626Z,17.60
2018-07-11T19:47:57.609Z,18.12
2018-07-11T19:50:33.738Z,16.93
2018-07-11T19:54:14.712Z,16.15
2018-07-11T19:56:45.445Z,17.52
2018-07-11T19:59:14.748Z,15.93
2018-07-11T20:01:43.980Z,15.70
2018-07-11T20:04:14.056Z,18.25
2018-07-11T20:06:44.055Z,17.40
2018-07-11T20:09:14.222Z,17.02
2018-07-11T20:11:43.223Z,17.57
2018-07-11T20:14:12.508Z,17.60
2018-07-11T20:16:42.163Z,17.10
2018-07-11T20:19:11.318Z,16.70
2018-07-11T20:21:40.411Z,16.87
2018-07-11T20:24:10.641Z,18.35
2018-07-11T20:26:39.773Z,20.97
2018-07-11T20:29:08.511Z,18.85
2018-07-11T20:31:37.610Z,16.62
2018-07-11T20:34:06.699Z,16.87
2018-07-11T20:36:35.975Z,15.72
2018-07-11T20:39:05.292Z,16.97
2018-07-11T20:41:34.348Z,15.18
2018-07-11T20:44:03.734Z,17.65
2018-07-11T20:46:34.421Z,15.40
2018-07-11T20:49:08.652Z,14.78
2018-07-11T20:51:37.722Z,16.12
2018-07-11T20:54:06.596Z,15.98
2018-07-11T20:56:35.473Z,15.15
2018-07-11T20:59:15.384Z,15.80
2018-07-11T21:04:02.778Z,15.60
2018-07-11T21:06:41.684Z,15.30
2018-07-11T21:09:22.776Z,16.05
2018-07-11T21:13:04.060Z,16.10
2018-07-11T21:15:53.016Z,15.98
2018-07-11T21:18:32.351Z,16.45
2018-07-11T21:21:01.673Z,17.75
2018-07-11T21:23:31.155Z,17.82
2018-07-11T21:26:00.920Z,16.95
2018-07-11T21:28:30.742Z,15.45
2018-07-11T21:30:59.755Z,16.75
2018-07-11T21:33:29.113Z,14.87
2018-07-11T21:35:59.431Z,14.68
2018-07-11T21:38:28.964Z,13.45
2018-07-11T21:40:58.249Z,12.53
2018-07-11T21:43:27.352Z,14.55
2018-07-11T21:45:56.467Z,15.13
2018-07-11T21:48:26.487Z,15.10
2018-07-11T21:50:55.566Z,15.72
2018-07-11T21:53:24.926Z,18.15
2018-07-11T21:55:54.039Z,16.55
2018-07-11T21:58:23.464Z,21.45
2018-07-11T22:00:52.544Z,20.08
2018-07-11T22:03:21.543Z,19.05
2018-07-11T22:05:50.489Z,21.37
2018-07-11T22:08:19.373Z,21.12
2018-07-11T22:10:48.295Z,27.05
2018-07-11T22:13:17.160Z,21.90
2018-07-11T22:15:46.112Z,22.32
2018-07-11T22:18:26.369Z,21.45
2018-07-11T22:20:54.728Z,22.25
2018-07-11T22:23:23.149Z,22.20
2018-07-11T22:25:50.763Z,20.35
2018-07-11T22:28:18.425Z,22.58
2018-07-11T22:30:46.188Z,21.95
2018-07-11T22:33:13.827Z,20.27
2018-07-11T22:35:41.519Z,21.45
2018-07-11T22:38:09.365Z,22.82
2018-07-11T22:40:37.449Z,21.52
2018-07-11T22:43:05.527Z,20.30
2018-07-11T22:45:33.370Z,21.17
2018-07-11T22:48:01.133Z,21.02
2018-07-11T22:50:29.202Z,19.60
2018-07-11T22:52:56.973Z,23.05
2018-07-11T22:55:24.876Z,21.52
2018-07-11T22:57:52.855Z,23.00
2018-07-11T23:00:20.655Z,24.57
2018-07-11T23:02:48.419Z,24.20
2018-07-11T23:05:16.286Z,24.65
2018-07-11T23:07:44.044Z,23.50
2018-07-11T23:10:11.769Z,25.72
2018-07-11T23:12:39.469Z,24.40
2018-07-11T23:15:07.231Z,25.23
2018-07-11T23:17:34.836Z,24.82
2018-07-11T23:20:02.469Z,27.17
2018-07-11T23:22:30.046Z,27.35
2018-07-11T23:24:57.636Z,25.65
2018-07-11T23:27:25.254Z,24.47
2018-07-11T23:29:52.841Z,26.30
2018-07-11T23:32:20.538Z,25.65
2018-07-11T23:34:48.708Z,27.60
2018-07-11T23:37:16.989Z,26.73
2018-07-11T23:39:44.643Z,26.02
2018-07-11T23:42:12.405Z,27.80
2018-07-11T23:44:40.165Z,26.40
2018-07-11T23:47:07.928Z,26.30
2018-07-11T23:49:35.972Z,25.05
2018-07-11T23:52:04.068Z,25.40
2018-07-11T23:54:31.829Z,23.87
2018-07-11T23:56:59.590Z,25.10
2018-07-11T23:59:27.359Z,23.27
